createdAt,value
2022-11-21T00:01:19.482Z,-1.92
2022-11-21T00:03:47.739Z,-1.92
2022-11-21T00:06:19.413Z,-1.92
2022-11-21T00:08:49.048Z,-1.92
2022-11-21T00:11:18.774Z,-1.89
2022-11-21T00:13:50.569Z,-1.88
2022-11-21T00:16:19.352Z,-1.88
2022-11-21T00:18:47.252Z,-1.86
2022-11-21T00:21:17.588Z,-1.91
2022-11-21T00:23:46.246Z,-1.92
2022-11-21T00:26:15.956Z,-1.89
2022-11-21T00:28:46.236Z,-1.91
2022-11-21T00:31:20.731Z,-1.89
2022-11-21T00:33:48.668Z,-1.88
2022-11-21T00:36:18.192Z,-1.91
2022-11-21T00:38:46.483Z,-1.88
2022-11-21T00:41:14.681Z,-1.89
2022-11-21T00:43:42.778Z,-1.88
2022-11-21T00:46:12.356Z,-1.86
2022-11-21T00:48:40.601Z,-1.86
2022-11-21T00:51:11.945Z,-1.83
2022-11-21T00:53:41.555Z,-1.88
2022-11-21T00:56:09.786Z,-1.89
2022-11-21T00:58:37.839Z,-1.85
2022-11-21T01:01:10.548Z,-1.86
2022-11-21T01:03:40.858Z,-1.85
2022-11-21T01:06:10.879Z,-1.83
2022-11-21T01:08:40.426Z,-1.83
2022-11-21T01:11:10.180Z,-1.85
2022-11-21T01:13:39.179Z,-1.83
2022-11-21T01:16:08.850Z,-1.82
2022-11-21T01:18:37.278Z,-1.83
2022-11-21T01:21:08.557Z,-1.82
2022-11-21T01:23:36.586Z,-1.82
2022-11-21T01:26:11.337Z,-1.78
2022-11-21T01:28:41.831Z,-1.82
2022-11-21T01:31:11.811Z,-1.81
2022-11-21T01:33:40.893Z,-1.79
2022-11-21T01:36:12.592Z,-1.78
2022-11-21T01:38:42.819Z,-1.78
2022-11-21T01:41:11.841Z,-1.78
2022-11-21T01:43:40.614Z,-1.79
2022-11-21T01:46:15.915Z,-1.79
2022-11-21T01:48:49.790Z,-1.82
2022-11-21T01:51:22.439Z,-1.82
2022-11-21T01:53:57.157Z,-1.81
2022-11-21T01:56:25.916Z,-1.81
2022-11-21T01:58:58.762Z,-1.82
2022-11-21T02:01:27.640Z,-1.83
2022-11-21T02:03:57.418Z,-1.82
2022-11-21T02:06:27.294Z,-1.86
2022-11-21T02:08:55.826Z,-1.86
2022-11-21T02:11:30.497Z,-1.83
2022-11-21T02:14:01.064Z,-1.83
2022-11-21T02:16:29.187Z,-1.83
2022-11-21T02:18:57.356Z,-1.81
2022-11-21T02:21:34.002Z,-1.82
2022-11-21T02:24:06.373Z,-1.82
2022-11-21T02:26:41.169Z,-1.82
2022-11-21T02:29:09.449Z,-1.82
2022-11-21T02:31:37.736Z,-1.82
2022-11-21T02:34:06.613Z,-1.83
2022-11-21T02:36:45.918Z,-1.86
2022-11-21T02:39:18.731Z,-1.88
2022-11-21T02:41:57.199Z,-1.89
2022-11-21T02:44:29.876Z,-1.93
2022-11-21T02:46:58.398Z,-1.91
2022-11-21T02:49:43.102Z,-1.92
2022-11-21T02:52:12.069Z,-1.91
2022-11-21T02:54:40.101Z,-1.92
2022-11-21T02:57:14.652Z,-1.91
2022-11-21T02:59:42.963Z,-1.89
2022-11-21T03:02:13.357Z,-1.89
2022-11-21T03:04:42.459Z,-1.91
2022-11-21T03:07:10.499Z,-1.91
2022-11-21T03:09:39.262Z,-1.88
2022-11-21T03:12:13.636Z,-1.88
2022-11-21T03:14:42.266Z,-1.83
2022-11-21T03:17:10.575Z,-1.82
2022-11-21T03:19:38.594Z,-1.81
2022-11-21T03:22:06.811Z,-1.79
2022-11-21T03:24:35.398Z,-1.79
2022-11-21T03:27:03.378Z,-1.79
2022-11-21T03:29:33.662Z,-1.79
2022-11-21T03:32:02.074Z,-1.78
2022-11-21T03:34:30.218Z,-1.77
2022-11-21T03:36:58.708Z,-1.75
2022-11-21T03:39:26.603Z,-1.75
2022-11-21T03:41:54.980Z,-1.72
2022-11-21T03:44:23.154Z,-1.75
2022-11-21T03:46:58.864Z,-1.77
2022-11-21T03:49:26.850Z,-1.72
2022-11-21T03:51:54.908Z,-1.74
2022-11-21T03:54:23.421Z,-1.71
2022-11-21T03:56:51.334Z,-1.71
2022-11-21T03:59:19.870Z,-1.72
2022-11-21T04:01:49.460Z,-1.71
2022-11-21T04:04:19.631Z,-1.71
2022-11-21T04:06:48.651Z,-1.71
2022-11-21T04:09:16.715Z,-1.68
2022-11-21T04:11:45.174Z,-1.67
2022-11-21T04:14:13.504Z,-1.67
2022-11-21T04:16:43.222Z,-1.68
2022-11-21T04:19:11.182Z,-1.68
2022-11-21T04:21:43.882Z,-1.67
2022-11-21T04:24:12.050Z,-1.70
2022-11-21T04:26:39.969Z,-1.72
2022-11-21T04:29:08.233Z,-1.71
2022-11-21T04:31:36.627Z,-1.74
2022-11-21T04:34:05.236Z,-1.75
2022-11-21T04:36:34.065Z,-1.79
2022-11-21T04:39:03.426Z,-1.88
2022-11-21T04:41:31.629Z,-1.93
2022-11-21T04:44:00.842Z,-2.00
2022-11-21T04:46:29.720Z,-2.09
2022-11-21T04:49:02.152Z,-2.13
2022-11-21T04:51:30.528Z,-2.17
2022-11-21T04:53:58.477Z,-2.20
2022-11-21T04:56:28.162Z,-2.23
2022-11-21T04:58:56.281Z,-2.25
2022-11-21T05:01:24.465Z,-2.29
2022-11-21T05:03:53.377Z,-2.29
2022-11-21T05:06:22.459Z,-2.29
2022-11-21T05:08:53.512Z,-2.29
2022-11-21T05:11:39.804Z,-2.22
2022-11-21T05:14:09.804Z,-2.22
2022-11-21T05:16:37.860Z,-2.22
2022-11-21T05:19:09.716Z,-2.17
2022-11-21T05:21:39.169Z,-2.13
2022-11-21T05:24:08.139Z,-2.12
2022-11-21T05:26:38.294Z,-2.09
2022-11-21T05:29:07.227Z,-2.07
2022-11-21T05:31:37.367Z,-2.06
2022-11-21T05:34:05.531Z,-2.05
2022-11-21T05:36:42.242Z,-2.00
2022-11-21T05:39:10.232Z,-1.96
2022-11-21T05:41:38.355Z,-1.96
2022-11-21T05:44:06.012Z,-1.92
2022-11-21T05:46:36.644Z,-1.92
2022-11-21T05:49:04.670Z,-1.89
2022-11-21T05:51:32.687Z,-1.88
2022-11-21T05:54:01.351Z,-1.88
2022-11-21T05:56:29.324Z,-1.85
2022-11-21T05:58:57.742Z,-1.82
2022-11-21T06:01:40.528Z,-1.79
2022-11-21T06:04:10.566Z,-1.75
2022-11-21T06:06:38.746Z,-1.71
2022-11-21T06:09:06.738Z,-1.67
2022-11-21T06:11:34.735Z,-1.65
2022-11-21T06:14:03.200Z,-1.65
2022-11-21T06:16:34.404Z,-1.65
2022-11-21T06:19:02.361Z,-1.65
2022-11-21T06:21:34.843Z,-1.62
2022-11-21T06:24:06.634Z,-1.64
2022-11-21T06:26:38.660Z,-1.64
2022-11-21T06:29:06.535Z,-1.67
2022-11-21T06:31:34.810Z,-1.67
2022-11-21T06:34:03.335Z,-1.67
2022-11-21T06:36:32.817Z,-1.65
2022-11-21T06:39:01.102Z,-1.67
2022-11-21T06:41:32.005Z,-1.68
2022-11-21T06:44:01.760Z,-1.67
2022-11-21T06:46:32.743Z,-1.70
2022-11-21T06:49:01.869Z,-1.68
2022-11-21T06:51:30.110Z,-1.67
2022-11-21T06:54:00.074Z,-1.65
2022-11-21T06:56:30.116Z,-1.64
2022-11-21T06:59:01.614Z,-1.65
2022-11-21T07:01:30.591Z,-1.68
2022-11-21T07:03:58.611Z,-1.71
2022-11-21T07:06:27.250Z,-1.71
2022-11-21T07:11:45.165Z,-1.70
2022-11-21T07:14:13.129Z,-1.70
2022-11-21T07:16:41.702Z,-1.71
2022-11-21T07:19:10.044Z,-1.72
2022-11-21T07:21:39.252Z,-1.70
2022-11-21T07:24:08.367Z,-1.67
2022-11-21T07:26:36.785Z,-1.67
2022-11-21T07:29:06.457Z,-1.65
2022-11-21T07:31:34.648Z,-1.71
2022-11-21T07:34:03.866Z,-1.79
2022-11-21T07:36:33.839Z,-1.85
2022-11-21T07:39:06.495Z,-1.88
2022-11-21T07:41:34.670Z,-1.93
2022-11-21T07:44:02.950Z,-1.93
2022-11-21T07:46:32.463Z,-1.93
2022-11-21T07:49:03.833Z,-1.93
2022-11-21T07:51:32.135Z,-1.96
2022-11-21T07:54:03.552Z,-1.93
2022-11-21T07:56:31.528Z,-1.91
2022-11-21T07:58:59.453Z,-1.86
2022-11-21T08:01:27.743Z,-1.83
2022-11-21T08:03:57.095Z,-1.79
2022-11-21T08:06:27.992Z,-1.74
2022-11-21T08:08:56.411Z,-1.70
2022-11-21T08:11:25.865Z,-1.61
2022-11-21T08:13:54.036Z,-1.61
2022-11-21T08:16:22.768Z,-1.60
2022-11-21T08:18:51.249Z,-1.60
2022-11-21T08:21:20.534Z,-1.57
2022-11-21T08:23:49.180Z,-1.54
2022-11-21T08:26:18.153Z,-1.55
2022-11-21T08:28:46.411Z,-1.55
2022-11-21T08:31:14.679Z,-1.55
2022-11-21T08:33:44.106Z,-1.54
2022-11-21T08:36:12.570Z,-1.57
2022-11-21T08:38:42.080Z,-1.57
2022-11-21T08:41:31.342Z,-1.60
2022-11-21T08:44:02.660Z,-1.65
2022-11-21T08:46:33.596Z,-1.67
2022-11-21T08:49:08.793Z,-1.70
2022-11-21T08:51:37.190Z,-1.72
2022-11-21T08:54:10.354Z,-1.70
2022-11-21T08:56:38.590Z,-1.71
2022-11-21T08:59:11.051Z,-1.71
2022-11-21T09:01:39.473Z,-1.72
2022-11-21T09:04:07.985Z,-1.74
2022-11-21T09:06:36.805Z,-1.71
2022-11-21T09:09:07.681Z,-1.70
2022-11-21T09:11:39.423Z,-1.62
2022-11-21T09:14:40.237Z,-1.60
2022-11-21T09:17:32.482Z,-1.57
2022-11-21T09:20:00.873Z,-1.54
2022-11-21T09:22:32.668Z,-1.51
2022-11-21T09:25:02.044Z,-1.46
2022-11-21T09:27:31.613Z,-1.44
2022-11-21T09:29:59.605Z,-1.43
2022-11-21T09:32:29.054Z,-1.43
2022-11-21T09:34:57.899Z,-1.46
2022-11-21T09:37:27.630Z,-1.46
2022-11-21T09:39:55.937Z,-1.40
2022-11-21T09:42:48.479Z,-1.36
2022-11-21T09:45:20.286Z,-1.36
2022-11-21T09:47:50.224Z,-1.29
2022-11-21T09:50:26.562Z,-1.26
2022-11-21T09:53:02.504Z,-1.17
2022-11-21T09:55:38.623Z,-1.12
2022-11-21T09:58:15.777Z,-1.09
2022-11-21T10:00:44.676Z,-1.09
2022-11-21T10:03:20.986Z,-1.03
2022-11-21T10:05:53.940Z,-0.99
2022-11-21T10:08:30.888Z,-0.95
2022-11-21T10:11:11.433Z,-0.91
2022-11-21T10:13:54.136Z,-0.88
2022-11-21T10:16:27.185Z,-0.86
2022-11-21T10:19:09.789Z,-0.82
2022-11-21T10:21:51.483Z,-0.82
2022-11-21T10:24:34.563Z,-0.82
2022-11-21T10:27:07.718Z,-0.78
2022-11-21T10:29:39.520Z,-0.72
2022-11-21T10:32:14.588Z,-0.69
2022-11-21T10:34:44.535Z,-0.68
2022-11-21T10:37:17.806Z,-0.68
2022-11-21T10:39:48.169Z,-0.64
2022-11-21T10:42:24.895Z,-0.64
2022-11-21T10:45:11.924Z,-0.60
2022-11-21T10:47:40.037Z,-0.54
2022-11-21T10:50:20.069Z,-0.48
2022-11-21T10:52:51.769Z,-0.46
2022-11-21T10:55:20.253Z,-0.50
2022-11-21T10:57:49.197Z,-0.52
2022-11-21T11:00:24.085Z,-0.52
2022-11-21T11:03:06.705Z,-0.50
2022-11-21T11:05:37.936Z,-0.50
2022-11-21T11:08:09.099Z,-0.44
2022-11-21T11:10:38.611Z,-0.42
2022-11-21T11:13:49.968Z,-0.41
2022-11-21T11:16:22.169Z,-0.38
2022-11-21T11:18:56.895Z,-0.30
2022-11-21T11:21:26.161Z,-0.25
2022-11-21T11:23:55.568Z,-0.24
2022-11-21T11:26:27.785Z,-0.23
2022-11-21T11:29:08.731Z,-0.23
2022-11-21T11:31:46.308Z,-0.20
2022-11-21T11:34:18.124Z,-0.17
2022-11-21T11:36:57.382Z,-0.11
2022-11-21T11:39:37.286Z,-0.07
2022-11-21T11:42:34.169Z,-0.04
2022-11-21T11:45:35.278Z,-0.06
2022-11-21T11:48:09.972Z,-0.03
2022-11-21T11:50:40.851Z,-0.06
2022-11-21T11:53:12.939Z,-0.07
2022-11-21T11:55:42.240Z,-0.04
2022-11-21T11:58:18.848Z,0.00
2022-11-21T12:00:50.729Z,0.03
2022-11-21T12:03:22.845Z,0.08
2022-11-21T12:05:56.948Z,0.13
2022-11-21T12:08:41.544Z,0.15
2022-11-21T12:11:37.871Z,0.22
2022-11-21T12:14:34.743Z,0.24
2022-11-21T12:17:06.765Z,0.28
2022-11-21T12:19:37.849Z,0.33
2022-11-21T12:22:09.153Z,0.28
2022-11-21T12:24:42.917Z,0.24
2022-11-21T12:27:23.060Z,0.22
2022-11-21T12:30:01.551Z,0.25
2022-11-21T12:32:40.085Z,0.19
2022-11-21T12:35:29.797Z,0.13
2022-11-21T12:38:06.148Z,0.15
2022-11-21T12:40:45.209Z,0.15
2022-11-21T12:43:20.812Z,0.19
2022-11-21T12:45:53.737Z,0.19
2022-11-21T12:48:47.788Z,0.24
2022-11-21T12:51:47.580Z,0.22
2022-11-21T12:54:33.502Z,0.24
2022-11-21T12:57:10.398Z,0.24
2022-11-21T12:59:52.153Z,0.29
2022-11-21T13:02:31.460Z,0.33
2022-11-21T13:05:01.290Z,0.34
2022-11-21T13:07:38.414Z,0.29
2022-11-21T13:10:13.691Z,0.28
2022-11-21T13:12:49.338Z,0.28
2022-11-21T13:15:23.222Z,0.25
2022-11-21T13:17:54.768Z,0.25
2022-11-21T13:20:28.224Z,0.27
2022-11-21T13:23:39.597Z,0.22
2022-11-21T13:26:52.521Z,0.11
2022-11-21T13:29:20.979Z,0.11
2022-11-21T13:31:49.529Z,0.10
2022-11-21T13:34:37.274Z,0.11
2022-11-21T13:37:06.495Z,0.15
2022-11-21T13:39:37.885Z,0.22
2022-11-21T13:42:25.776Z,0.19
2022-11-21T13:44:57.603Z,0.19
2022-11-21T13:48:13.638Z,0.18
2022-11-21T13:51:15.248Z,0.11
2022-11-21T13:53:58.438Z,0.06
2022-11-21T13:56:39.757Z,0.01
2022-11-21T13:59:21.364Z,0.00
2022-11-21T14:02:06.354Z,-0.02
2022-11-21T14:04:45.087Z,-0.02
2022-11-21T14:07:27.940Z,-0.07
2022-11-21T14:09:57.123Z,-0.14
2022-11-21T14:12:34.493Z,-0.23
2022-11-21T14:15:18.891Z,-0.28
2022-11-21T14:17:49.380Z,-0.31
2022-11-21T14:20:20.893Z,-0.33
2022-11-21T14:23:05.987Z,-0.37
2022-11-21T14:25:43.870Z,-0.42
2022-11-21T14:28:18.015Z,-0.48
2022-11-21T14:30:46.361Z,-0.57
2022-11-21T14:33:33.238Z,-0.66
2022-11-21T14:36:06.685Z,-0.72
2022-11-21T14:38:37.786Z,-0.78
2022-11-21T14:41:28.057Z,-0.83
2022-11-21T14:44:08.082Z,-0.89
2022-11-21T14:46:37.337Z,-0.93
2022-11-21T14:49:19.487Z,-1.02
2022-11-21T14:51:49.307Z,-1.09
2022-11-21T14:54:19.956Z,-1.07
2022-11-21T14:56:49.276Z,-1.12
2022-11-21T14:59:23.927Z,-1.14
2022-11-21T15:01:56.928Z,-1.17
2022-11-21T15:04:30.463Z,-1.23
2022-11-21T15:06:58.888Z,-1.27
2022-11-21T15:12:20.535Z,-1.37
2022-11-21T15:14:54.689Z,-1.44
2022-11-21T15:17:24.942Z,-1.50
2022-11-21T15:20:17.334Z,-1.52
2022-11-21T15:22:45.260Z,-1.58
2022-11-21T15:25:17.391Z,-1.60
2022-11-21T15:27:47.180Z,-1.64
2022-11-21T15:30:37.964Z,-1.68
2022-11-21T15:33:10.249Z,-1.74
2022-11-21T15:35:44.685Z,-1.78
2022-11-21T15:38:18.217Z,-1.81
2022-11-21T15:41:04.159Z,-1.79
2022-11-21T15:43:43.900Z,-1.81
2022-11-21T15:46:21.044Z,-1.85
2022-11-21T15:48:50.631Z,-1.83
2022-11-21T15:51:31.843Z,-1.89
2022-11-21T15:54:08.821Z,-1.96
2022-11-21T15:56:36.937Z,-1.99
2022-11-21T15:59:06.035Z,-1.99
2022-11-21T16:01:40.253Z,-2.00
2022-11-21T16:04:11.032Z,-2.00
2022-11-21T16:06:39.333Z,-2.09
2022-11-21T16:09:08.365Z,-2.12
2022-11-21T16:11:39.220Z,-2.10
2022-11-21T16:14:09.026Z,-2.13
2022-11-21T16:16:43.261Z,-2.12
2022-11-21T16:19:12.485Z,-2.14
2022-11-21T16:21:41.144Z,-2.19
2022-11-21T16:24:09.303Z,-2.22
2022-11-21T16:26:37.832Z,-2.17
2022-11-21T16:29:06.517Z,-2.16
2022-11-21T16:31:37.955Z,-2.17
2022-11-21T16:34:07.387Z,-2.16
2022-11-21T16:36:35.436Z,-2.17
2022-11-21T16:39:08.899Z,-2.17
2022-11-21T16:41:37.402Z,-2.16
2022-11-21T16:44:06.527Z,-2.14
2022-11-21T16:46:35.087Z,-2.19
2022-11-21T16:49:04.556Z,-2.20
2022-11-21T16:51:34.424Z,-2.22
2022-11-21T16:54:07.334Z,-2.22
2022-11-21T16:56:37.566Z,-2.23
2022-11-21T16:59:05.545Z,-2.20
2022-11-21T17:01:34.843Z,-2.22
2022-11-21T17:04:02.909Z,-2.14
2022-11-21T17:06:32.369Z,-2.14
2022-11-21T17:09:02.265Z,-2.10
2022-11-21T17:11:31.869Z,-2.06
2022-11-21T17:14:02.116Z,-2.06
2022-11-21T17:16:31.768Z,-2.07
2022-11-21T17:19:01.246Z,-2.03
2022-11-21T17:21:31.257Z,-2.03
2022-11-21T17:24:00.380Z,-2.02
2022-11-21T17:26:30.898Z,-2.02
2022-11-21T17:29:03.796Z,-1.99
2022-11-21T17:31:32.467Z,-2.00
2022-11-21T17:34:09.275Z,-2.00
2022-11-21T17:36:37.561Z,-2.03
2022-11-21T17:39:05.573Z,-2.03
2022-11-21T17:41:34.982Z,-2.07
2022-11-21T17:44:03.129Z,-2.09
2022-11-21T17:46:31.483Z,-2.07
2022-11-21T17:49:00.254Z,-2.07
2022-11-21T17:51:29.855Z,-2.06
2022-11-21T17:53:58.872Z,-2.06
2022-11-21T17:56:29.323Z,-2.02
2022-11-21T17:58:59.072Z,-2.00
2022-11-21T18:01:27.791Z,-2.00
2022-11-21T18:03:58.211Z,-1.98
2022-11-21T18:06:27.572Z,-1.98
2022-11-21T18:08:56.810Z,-1.96
2022-11-21T18:11:25.110Z,-1.96
2022-11-21T18:13:54.494Z,-1.96
2022-11-21T18:16:25.523Z,-1.96
2022-11-21T18:18:54.668Z,-1.96
2022-11-21T18:21:25.006Z,-1.95
2022-11-21T18:23:54.043Z,-1.98
2022-11-21T18:26:24.125Z,-1.96
2022-11-21T18:29:13.565Z,-2.03
2022-11-21T18:31:44.188Z,-2.03
2022-11-21T18:34:13.184Z,-2.00
2022-11-21T18:36:42.034Z,-1.99
2022-11-21T18:39:15.096Z,-1.99
2022-11-21T18:41:44.357Z,-2.00
2022-11-21T18:44:20.072Z,-1.99
2022-11-21T18:46:51.507Z,-1.99
2022-11-21T18:49:19.842Z,-2.02
2022-11-21T18:51:48.934Z,-1.98
2022-11-21T18:54:17.331Z,-2.00
2022-11-21T18:56:47.378Z,-1.96
2022-11-21T18:59:15.821Z,-1.98
2022-11-21T19:01:44.598Z,-1.93
2022-11-21T19:04:14.087Z,-1.93
2022-11-21T19:06:42.368Z,-1.92
2022-11-21T19:09:11.625Z,-1.89
2022-11-21T19:11:39.712Z,-1.89
2022-11-21T19:14:08.882Z,-1.89
2022-11-21T19:16:40.626Z,-1.88
2022-11-21T19:22:01.121Z,-1.83
2022-11-21T19:24:29.278Z,-1.82
2022-11-21T19:26:57.264Z,-1.82
2022-11-21T19:29:26.283Z,-1.83
2022-11-21T19:31:55.851Z,-1.83
2022-11-21T19:34:25.417Z,-1.81
2022-11-21T19:36:55.051Z,-1.79
2022-11-21T19:39:27.321Z,-1.78
2022-11-21T19:42:00.614Z,-1.75
2022-11-21T19:44:29.609Z,-1.77
2022-11-21T19:46:57.624Z,-1.74
2022-11-21T19:49:27.321Z,-1.72
2022-11-21T19:51:55.495Z,-1.67
2022-11-21T19:54:27.400Z,-1.65
2022-11-21T19:57:02.381Z,-1.62
2022-11-21T19:59:32.870Z,-1.61
2022-11-21T20:02:01.961Z,-1.57
2022-11-21T20:04:30.775Z,-1.55
2022-11-21T20:07:06.274Z,-1.51
2022-11-21T20:09:37.809Z,-1.48
2022-11-21T20:12:06.478Z,-1.50
2022-11-21T20:14:34.805Z,-1.48
2022-11-21T20:17:02.767Z,-1.43
2022-11-21T20:19:31.843Z,-1.46
2022-11-21T20:22:00.186Z,-1.44
2022-11-21T20:24:29.290Z,-1.44
2022-11-21T20:26:59.304Z,-1.43
2022-11-21T20:29:27.556Z,-1.44
2022-11-21T20:31:59.059Z,-1.40
2022-11-21T20:34:27.687Z,-1.41
2022-11-21T20:36:56.218Z,-1.41
2022-11-21T20:39:30.693Z,-1.40
2022-11-21T20:42:01.658Z,-1.40
2022-11-21T20:45:48.129Z,-1.37
2022-11-21T20:47:18.856Z,-1.37
2022-11-21T20:49:47.019Z,-1.36
2022-11-21T20:55:03.333Z,-1.31
2022-11-21T20:57:33.013Z,-1.31
2022-11-21T21:00:01.014Z,-1.29
2022-11-21T21:02:29.090Z,-1.26
2022-11-21T21:04:57.642Z,-1.23
2022-11-21T21:07:25.755Z,-1.20
2022-11-21T21:09:53.985Z,-1.14
2022-11-21T21:12:22.020Z,-1.14
2022-11-21T21:14:51.448Z,-1.10
2022-11-21T21:17:19.926Z,-1.04
2022-11-21T21:19:49.047Z,-1.03
2022-11-21T21:22:17.455Z,-1.00
2022-11-21T21:24:45.896Z,-0.96
2022-11-21T21:27:14.246Z,-0.93
2022-11-21T21:29:42.248Z,-0.93
2022-11-21T21:32:12.220Z,-0.95
2022-11-21T21:34:41.269Z,-0.93
2022-11-21T21:37:09.749Z,-0.91
2022-11-21T21:39:38.034Z,-0.88
2022-11-21T21:42:06.699Z,-0.83
2022-11-21T21:44:37.479Z,-0.82
2022-11-21T21:47:07.170Z,-0.79
2022-11-21T21:49:36.944Z,-0.78
2022-11-21T21:52:06.801Z,-0.79
2022-11-21T21:54:37.340Z,-0.78
2022-11-21T21:57:06.413Z,-0.76
2022-11-21T21:59:34.523Z,-0.78
2022-11-21T22:02:04.212Z,-0.76
2022-11-21T22:04:33.829Z,-0.73
2022-11-21T22:07:05.618Z,-0.72
2022-11-21T22:09:33.909Z,-0.71
2022-11-21T22:12:03.451Z,-0.72
2022-11-21T22:14:31.765Z,-0.71
2022-11-21T22:16:59.917Z,-0.71
2022-11-21T22:19:28.138Z,-0.72
2022-11-21T22:21:56.706Z,-0.71
2022-11-21T22:24:27.304Z,-0.71
2022-11-21T22:26:58.743Z,-0.69
2022-11-21T22:29:27.278Z,-0.69
2022-11-21T22:31:55.523Z,-0.73
2022-11-21T22:34:23.895Z,-0.75
2022-11-21T22:36:52.058Z,-0.76
2022-11-21T22:39:20.219Z,-0.78
2022-11-21T22:41:49.749Z,-0.81
2022-11-21T22:44:19.084Z,-0.81
2022-11-21T22:46:47.214Z,-0.85
2022-11-21T22:49:16.696Z,-0.86
2022-11-21T22:51:44.824Z,-0.88
2022-11-21T22:54:13.774Z,-0.86
2022-11-21T22:56:42.574Z,-0.88
2022-11-21T22:59:17.184Z,-0.93
2022-11-21T23:01:45.744Z,-0.95
2022-11-21T23:04:29.665Z,-1.03
2022-11-21T23:06:57.694Z,-1.10
2022-11-21T23:09:25.969Z,-1.14
2022-11-21T23:11:54.334Z,-1.19
2022-11-21T23:14:24.021Z,-1.20
2022-11-21T23:16:52.064Z,-1.21
2022-11-21T23:19:20.049Z,-1.20
2022-11-21T23:21:48.231Z,-1.19
2022-11-21T23:24:16.578Z,-1.16
2022-11-21T23:26:44.593Z,-1.14
2022-11-21T23:29:12.997Z,-1.12
2022-11-21T23:31:42.529Z,-1.12
2022-11-21T23:34:12.378Z,-1.07
2022-11-21T23:36:40.728Z,-1.07
2022-11-21T23:39:09.208Z,-1.09
2022-11-21T23:41:37.646Z,-1.07
2022-11-21T23:44:06.394Z,-1.10
2022-11-21T23:46:34.403Z,-1.10
2022-11-21T23:49:04.132Z,-1.12
2022-11-21T23:51:32.538Z,-1.17
2022-11-21T23:54:03.851Z,-1.24
2022-11-21T23:56:32.345Z,-1.29
2022-11-21T23:59:00.413Z,-1.36
